Time;durP1;ratioP1;P1;durP2;ratioP2;P2;SDS_P1;SDS_P2;PMS_P1;PMS_P2;Temp;Humidity;BMP_temperature;BMP_pressure;BME280_temperature;BME280_humidity;BME280_pressure;Samples;Min_cycle;Max_cycle;Signal;HPM_P1;HPM_P2
2021/04/07 00:01:42;;;;;;;2.38;1.80;;;;;;;;;;5034112;28;20466;-73
2021/04/07 00:04:08;;;;;;;2.20;2.00;;;;;;;;;;5033392;28;20429;-73
2021/04/07 00:06:35;;;;;;;4.00;1.95;;;;;;;;;;5033933;28;20380;-72
2021/04/07 00:09:01;;;;;;;3.35;1.80;;;;;;;;;;5032941;28;20391;-73
2021/04/07 00:11:28;;;;;;;2.63;1.80;;;;;;;;;;5033540;28;20865;-72
2021/04/07 00:13:54;;;;;;;2.92;2.10;;;;;;;;;;5024430;28;20927;-72
2021/04/07 00:16:19;;;;;;;2.00;1.90;;;;;;;;;;5013236;28;20373;-70
2021/04/07 00:18:45;;;;;;;2.53;2.33;;;;;;;;;;5013679;28;20464;-71
2021/04/07 00:21:11;;;;;;;3.50;2.28;;;;;;;;;;5011919;28;20865;-71
2021/04/07 00:23:37;;;;;;;2.53;2.33;;;;;;;;;;5013596;28;20385;-71
2021/04/07 00:26:03;;;;;;;2.45;2.00;;;;;;;;;;5012817;28;20857;-71
2021/04/07 00:28:29;;;;;;;3.90;2.47;;;;;;;;;;5013085;28;20393;-71
2021/04/07 00:30:57;;;;;;;2.30;2.10;;;;;;;;;;5013550;28;20409;-71
2021/04/07 00:33:23;;;;;;;2.50;2.10;;;;;;;;;;5013409;28;20444;-72
2021/04/07 00:35:49;;;;;;;3.25;2.83;;;;;;;;;;5013477;28;20939;-71
2021/04/07 00:38:14;;;;;;;2.42;2.00;;;1.10;99.90;;;;;;5012689;28;20377;-71
2021/04/07 00:40:40;;;;;;;4.50;2.40;;;;;;;;;;5013391;28;20393;-71
2021/04/07 00:43:07;;;;;;;2.70;2.10;;;;;;;;;;5012460;28;20467;-71
2021/04/07 00:45:33;;;;;;;2.33;1.90;;;;;;;;;;5012916;28;20402;-71
2021/04/07 00:47:59;;;;;;;2.88;2.20;;;;;;;;;;5012617;28;20381;-72
2021/04/07 00:50:26;;;;;;;2.88;2.47;;;;;;;;;;5013076;28;20757;-70
2021/04/07 00:52:52;;;;;;;2.78;2.35;;;;;;;;;;5013152;28;20420;-70
2021/04/07 00:55:20;;;;;;;3.60;2.60;;;1.10;99.90;;;;;;5012306;28;20704;-70
2021/04/07 00:57:47;;;;;;;3.10;2.53;;;;;;;;;;5011419;28;20396;-71
2021/04/07 01:00:13;;;;;;;3.17;2.33;;;;;;;;;;5012281;28;20381;-71
2021/04/07 01:02:39;;;;;;;3.28;2.40;;;;;;;;;;5012931;28;20408;-72
2021/04/07 01:05:06;;;;;;;2.40;2.20;;;;;;;;;;5012131;28;20387;-72
2021/04/07 01:07:32;;;;;;;2.33;2.10;;;;;;;;;;5012880;28;20373;-71
2021/04/07 01:09:58;;;;;;;3.75;2.40;;;;;;;;;;5012967;28;20428;-71
2021/04/07 01:12:24;;;;;;;2.42;2.22;;;;;;;;;;5030316;28;20481;-71
2021/04/07 01:14:51;;;;;;;3.42;3.13;;;1.30;99.90;;;;;;5015235;28;20377;-71
2021/04/07 01:17:18;;;;;;;2.10;2.00;;;;;;;;;;5012038;28;20385;-72
2021/04/07 01:19:44;;;;;;;2.22;2.03;;;;;;;;;;5012486;28;20373;-71
2021/04/07 01:22:11;;;;;;;2.88;2.67;;;;;;;;;;5012175;28;20404;-72
2021/04/07 01:24:37;;;;;;;4.10;2.70;;;;;;;;;;5012424;28;20392;-71
2021/04/07 01:27:03;;;;;;;3.47;2.30;;;;;;;;;;5011614;28;20380;-72
2021/04/07 01:29:29;;;;;;;3.72;2.33;;;1.50;99.90;;;;;;5012416;28;20451;-71
2021/04/07 01:31:55;;;;;;;2.80;2.50;;;;;;;;;;5012605;28;20412;-72
2021/04/07 01:34:26;;;;;;;2.40;2.20;;;0.90;99.90;;;;;;5011602;28;20450;-71
2021/04/07 01:36:52;;;;;;;2.90;2.60;;;;;;;;;;5012347;28;20421;-71
2021/04/07 01:39:20;;;;;;;3.20;2.60;;;;;;;;;;5010745;28;20479;-72
2021/04/07 01:41:46;;;;;;;4.40;2.40;;;;;;;;;;5012137;28;20874;-71
2021/04/07 01:44:14;;;;;;;3.30;2.50;;;;;;;;;;5011226;28;20444;-71
2021/04/07 01:46:40;;;;;;;3.30;2.20;;;;;;;;;;5012253;28;20443;-71
2021/04/07 01:49:09;;;;;;;3.40;2.30;;;;;;;;;;5011709;28;20838;-72
2021/04/07 01:51:35;;;;;;;2.72;2.53;;;;;;;;;;5011991;28;20388;-71
2021/04/07 01:54:09;;;;;;;4.40;2.92;;;;;;;;;;5011969;28;20384;-71
2021/04/07 01:57:07;;;;;;;2.90;2.67;;;1.00;99.90;;;;;;5011802;28;20459;-71
2021/04/07 01:59:33;;;;;;;3.00;2.25;;;;;;;;;;5011860;28;20800;-71
2021/04/07 02:02:00;;;;;;;3.47;2.40;;;;;;;;;;5011807;28;20801;-71
2021/04/07 02:04:26;;;;;;;2.33;2.10;;;;;;;;;;5011062;28;20411;-71
2021/04/07 02:06:52;;;;;;;4.20;1.92;;;;;;;;;;5011786;28;20442;-71
2021/04/07 02:09:19;;;;;;;2.00;1.80;;;;;;;;;;5011160;28;20520;-71
2021/04/07 02:11:46;;;;;;;2.70;2.40;;;;;;;;;;5024296;28;20403;-71
2021/04/07 02:14:13;;;;;;;3.17;2.50;;;;;;;;;;5018820;28;20491;-71
2021/04/07 02:16:39;;;;;;;2.10;2.00;;;;;;;;;;5011447;28;20380;-71
2021/04/07 02:19:08;;;;;;;2.20;2.00;;;;;;;;;;5010885;28;20400;-73
2021/04/07 02:21:35;;;;;;;2.72;2.20;;;;;;;;;;5011081;28;20381;-71
2021/04/07 02:24:01;;;;;;;2.60;2.05;;;;;;;;;;5011163;28;20369;-72
2021/04/07 02:26:27;;;;;;;2.53;1.88;;;;;;;;;;5010751;28;20377;-71
2021/04/07 02:28:53;;;;;;;2.20;2.00;;;;;;;;;;5011302;28;20467;-71
2021/04/07 02:31:19;;;;;;;2.50;2.22;;;;;;;;;;5010753;28;20492;-71
2021/04/07 02:33:45;;;;;;;3.60;2.20;;;;;;;;;;5011023;28;20404;-71
2021/04/07 02:36:11;;;;;;;4.38;2.05;;;;;;;;;;5010575;28;20377;-71
2021/04/07 02:38:37;;;;;;;2.83;2.10;;;;;;;;;;5011106;28;20829;-71
2021/04/07 02:41:03;;;;;;;3.80;2.75;;;;;;;;;;5010808;28;20413;-71
2021/04/07 02:43:29;;;;;;;3.15;2.10;;;;;;;;;;5010595;28;20377;-71
2021/04/07 02:45:54;;;;;;;3.53;2.45;;;0.80;99.90;;;;;;5011082;28;20365;-70
2021/04/07 02:48:21;;;;;;;2.95;2.53;;;;;;;;;;5010454;28;20392;-72
2021/04/07 02:50:46;;;;;;;2.50;2.30;;;;;;;;;;5010829;28;20415;-72
2021/04/07 02:53:13;;;;;;;3.72;2.80;;;;;;;;;;5010587;28;20376;-72
2021/04/07 02:55:39;;;;;;;2.80;2.50;;;;;;;;;;5011024;28;20431;-72
2021/04/07 02:58:05;;;;;;;2.70;2.50;;;;;;;;;;5010796;28;20459;-72
2021/04/07 03:00:31;;;;;;;3.05;2.85;;;;;;;;;;5010950;28;20738;-73
2021/04/07 03:02:57;;;;;;;3.72;3.33;;;;;;;;;;5011177;28;20415;-73
2021/04/07 03:05:23;;;;;;;4.60;2.85;;;;;;;;;;5010378;28;20373;-73
2021/04/07 03:07:49;;;;;;;3.70;3.30;;;;;;;;;;5010794;28;20753;-71
2021/04/07 03:10:15;;;;;;;4.55;3.50;;;;;;;;;;5009283;28;20417;-73
2021/04/07 03:12:41;;;;;;;5.60;3.50;;;;;;;;;;5031104;28;20382;-73
2021/04/07 03:15:09;;;;;;;3.80;2.80;;;;;;;;;;5009584;28;20774;-75
2021/04/07 03:17:38;;;;;;;3.65;3.13;;;0.60;99.90;;;;;;5010935;28;20373;-71
2021/04/07 03:20:08;;;;;;;4.50;2.80;;;;;;;;;;5010987;28;20389;-71
2021/04/07 03:22:34;;;;;;;4.00;2.72;;;1.00;99.90;;;;;;5010795;28;20388;-73
2021/04/07 03:25:00;;;;;;;3.50;3.20;;;;;;;;;;5010695;28;20388;-73
2021/04/07 03:27:26;;;;;;;3.85;3.45;;;;;;;;;;5010276;28;20376;-73
2021/04/07 03:29:53;;;;;;;3.00;2.65;;;;;;;;;;5010861;28;20458;-73
2021/04/07 03:32:19;;;;;;;3.38;2.90;;;;;;;;;;5010223;28;20385;-73
2021/04/07 03:34:45;;;;;;;3.42;3.00;;;;;;;;;;5010756;28;20464;-73
2021/04/07 03:37:11;;;;;;;3.38;2.90;;;;;;;;;;5010486;28;20459;-73
2021/04/07 03:39:37;;;;;;;3.37;2.83;;;;;;;;;;5011196;28;20442;-73
2021/04/07 03:42:03;;;;;;;3.40;3.10;;;;;;;;;;5010454;28;20426;-73
2021/04/07 03:44:29;;;;;;;4.20;3.20;;;;;;;;;;5010123;28;20400;-73
2021/04/07 03:46:55;;;;;;;3.10;2.80;;;0.70;99.90;;;;;;5010669;28;20479;-73
2021/04/07 03:49:21;;;;;;;4.00;2.80;;;;;;;;;;5009727;28;20504;-73
2021/04/07 03:51:47;;;;;;;3.97;3.05;;;;;;;;;;5010649;28;20480;-73
2021/04/07 03:54:13;;;;;;;3.90;2.90;;;;;;;;;;5010052;28;20388;-73
2021/04/07 03:56:40;;;;;;;2.20;2.10;;;;;;;;;;5010524;28;20393;-73
2021/04/07 03:59:06;;;;;;;3.20;2.70;;;;;;;;;;5010744;28;20401;-73
2021/04/07 04:01:32;;;;;;;2.75;2.47;;;;;;;;;;5009872;28;20878;-73
2021/04/07 04:03:58;;;;;;;2.83;2.47;;;0.80;99.90;;;;;;5013529;28;20380;-73
2021/04/07 04:06:24;;;;;;;2.33;1.93;;;;;;;;;;5013721;28;20383;-73
2021/04/07 04:08:50;;;;;;;2.60;2.40;;;;;;;;;;5014217;28;20393;-71
2021/04/07 04:11:16;;;;;;;3.53;2.25;;;;;;;;;;5022346;28;20905;-73
2021/04/07 04:13:42;;;;;;;3.00;2.00;;;;;;;;;;5026361;28;20794;-73
2021/04/07 04:16:08;;;;;;;2.67;2.25;;;;;;;;;;5014213;28;20373;-73
2021/04/07 04:18:34;;;;;;;3.50;2.22;;;;;;;;;;5013891;28;20460;-70
2021/04/07 04:21:00;;;;;;;2.65;2.03;;;;;;;;;;5014134;28;20419;-73
2021/04/07 04:23:26;;;;;;;3.97;2.40;;;;;;;;;;5013200;28;20384;-73
2021/04/07 04:25:52;;;;;;;1.90;1.80;;;1.00;99.90;;;;;;5014158;28;20373;-73
2021/04/07 04:28:18;;;;;;;2.10;1.90;;;;;;;;;;5013178;28;20409;-73
2021/04/07 04:30:44;;;;;;;1.60;1.50;;;;;;;;;;5013723;28;20432;-73
2021/04/07 04:33:11;;;;;;;1.70;1.60;;;;;;;;;;5014166;28;20391;-73
2021/04/07 04:35:37;;;;;;;2.22;1.73;;;;;;;;;;5013618;28;20838;-73
2021/04/07 04:38:02;;;;;;;2.13;1.63;;;1.00;99.90;;;;;;5012589;28;20699;-73
2021/04/07 04:40:28;;;;;;;2.20;2.00;;;;;;;;;;5013521;28;20427;-73
2021/04/07 04:42:54;;;;;;;2.30;2.00;;;;;;;;;;5013332;28;20381;-73
2021/04/07 04:45:20;;;;;;;2.20;2.00;;;;;;;;;;5013096;28;20379;-74
2021/04/07 04:47:47;;;;;;;2.25;1.90;;;;;;;;;;5013540;28;20412;-73
2021/04/07 04:50:13;;;;;;;1.80;1.70;;;;;;;;;;5012675;28;20927;-75
2021/04/07 04:52:39;;;;;;;2.47;2.28;;;;;;;;;;5013519;28;20450;-73
2021/04/07 04:55:07;;;;;;;3.35;2.25;;;1.00;99.90;;;;;;5013558;28;20376;-73
2021/04/07 04:57:33;;;;;;;1.75;1.65;;;;;;;;;;5012825;28;20628;-73
2021/04/07 04:59:59;;;;;;;3.30;2.38;;;0.80;99.90;;;;;;5013409;28;20389;-73
2021/04/07 05:02:25;;;;;;;1.88;1.65;;;;;;;;;;5012750;28;20785;-73
2021/04/07 05:04:51;;;;;;;2.40;2.20;;;;;;;;;;5012052;28;20443;-73
2021/04/07 05:07:17;;;;;;;2.10;1.65;;;;;;;;;;5012346;28;20377;-74
2021/04/07 05:09:43;;;;;;;3.40;2.35;;;;;;;;;;5013280;28;20475;-73
2021/04/07 05:12:09;;;;;;;2.95;1.83;;;0.90;99.90;;;;;;5028824;28;20449;-72
2021/04/07 05:14:35;;;;;;;4.20;2.30;;;;;;;;;;5017161;28;20396;-73
2021/04/07 05:17:01;;;;;;;2.30;2.10;;;;;;;;;;5013053;28;20389;-73
2021/04/07 05:19:27;;;;;;;3.00;2.42;;;;;;;;;;5012407;28;20471;-73
2021/04/07 05:21:53;;;;;;;2.75;2.00;;;;;;;;;;5013079;28;20695;-73
2021/04/07 05:24:20;;;;;;;4.00;2.60;;;;;;;;;;5012506;28;20469;-74
2021/04/07 05:26:45;;;;;;;2.40;2.17;;;;;;;;;;5012978;28;20377;-73
2021/04/07 05:29:12;;;;;;;4.38;2.20;;;;;;;;;;5012841;28;20377;-73
2021/04/07 05:31:38;;;;;;;3.63;2.10;;;;;;;;;;5012624;28;20851;-73
2021/04/07 05:34:03;;;;;;;2.95;2.60;;;0.90;99.90;;;;;;5012386;28;20388;-73
2021/04/07 05:36:29;;;;;;;2.63;2.43;;;;;;;;;;5012157;28;20400;-73
2021/04/07 05:38:55;;;;;;;2.15;1.95;;;;;;;;;;5012269;28;20393;-73
2021/04/07 05:41:21;;;;;;;2.40;1.90;;;;;;;;;;5012119;28;20442;-73
2021/04/07 05:43:47;;;;;;;2.15;1.85;;;;;;;;;;5012553;28;20469;-73
2021/04/07 05:46:13;;;;;;;2.83;2.30;;;1.40;99.90;;;;;;5012773;28;20400;-73
2021/04/07 05:48:40;;;;;;;2.25;2.05;;;;;;;;;;5011788;28;20424;-73
2021/04/07 05:51:06;;;;;;;2.08;1.80;;;;;;;;;;5012502;28;20452;-72
2021/04/07 05:53:32;;;;;;;1.98;1.88;;;1.30;99.90;;;;;;5010464;28;20484;-73
2021/04/07 05:55:59;;;;;;;2.33;2.13;;;;;;;;;;5012570;28;20468;-73
2021/04/07 05:58:25;;;;;;;2.00;1.77;;;;;;;;;;5011597;28;20780;-73
2021/04/07 06:00:52;;;;;;;3.20;2.35;;;;;;;;;;5012207;28;20737;-72
2021/04/07 06:03:18;;;;;;;2.50;1.73;;;;;;;;;;5011639;28;20408;-74
2021/04/07 06:05:46;;;;;;;2.42;2.22;;;1.20;99.90;;;;;;5012139;28;20919;-72
2021/04/07 06:08:12;;;;;;;2.67;2.17;;;;;;;;;;5012016;28;20477;-73
2021/04/07 06:10:39;;;;;;;2.10;1.90;;;;;;;;;;5015024;28;20513;-72
2021/04/07 06:13:07;;;;;;;5.40;1.95;;;;;;;;;;5027733;28;20458;-72
2021/04/07 06:15:33;;;;;;;2.38;1.70;;;;;;;;;;5011437;28;20400;-72
2021/04/07 06:18:01;;;;;;;2.53;1.80;;;;;;;;;;5011880;28;20369;-72
2021/04/07 06:20:30;;;;;;;2.78;1.70;;;1.40;99.90;;;;;;5011414;28;20469;-73
2021/04/07 06:22:56;;;;;;;2.42;2.00;;;1.40;99.90;;;;;;5011889;28;20850;-73
2021/04/07 06:25:23;;;;;;;3.05;1.80;;;1.30;99.90;;;;;;5010926;28;20392;-73
2021/04/07 06:27:56;;;;;;;1.63;1.50;;;1.60;99.90;;;;;;5011843;28;20516;-72
2021/04/07 06:30:41;;;;;;;2.78;2.20;;;;;;;;;;5010944;28;20948;-73
2021/04/07 06:33:11;;;;;;;2.40;2.20;;;;;;;;;;5011770;28;20436;-72
2021/04/07 06:35:37;;;;;;;2.00;1.80;;;;;;;;;;5010958;28;20774;-73
2021/04/07 06:38:03;;;;;;;2.55;2.00;;;;;;;;;;5011533;28;20365;-73
2021/04/07 06:40:30;;;;;;;1.98;1.88;;;;;;;;;;5011232;28;20393;-72
2021/04/07 06:42:58;;;;;;;2.37;2.17;;;1.70;99.90;;;;;;5010187;28;20393;-72
2021/04/07 06:45:25;;;;;;;3.40;1.67;;;;;;;;;;5010877;28;20476;-73
2021/04/07 06:47:52;;;;;;;2.67;2.20;;;1.70;99.90;;;;;;5011248;28;20698;-73
2021/04/07 06:50:18;;;;;;;1.70;1.50;;;;;;;;;;5011233;28;20491;-72
2021/04/07 06:52:44;;;;;;;1.80;1.48;;;;;;;;;;5011290;28;20442;-71
2021/04/07 06:55:11;;;;;;;3.15;1.60;;;;;;;;;;5011427;28;20376;-72
2021/04/07 06:57:37;;;;;;;2.10;1.90;;;;;;;;;;5010841;28;20373;-71
2021/04/07 07:00:09;;;;;;;3.10;1.60;;;;;;;;;;5011475;28;20737;-72
2021/04/07 07:02:35;;;;;;;1.80;1.70;;;;;;;;;;5010885;28;20413;-71
2021/04/07 07:05:02;;;;;;;1.90;1.70;;;;;;;;;;5011284;28;20400;-73
2021/04/07 07:07:29;;;;;;;2.72;1.88;;;;;;;;;;5010776;28;20405;-72
2021/04/07 07:09:55;;;;;;;3.50;1.60;;;;;;;;;;5011209;28;20805;-71
2021/04/07 07:12:22;;;;;;;2.13;1.40;;;;;;;;;;5028068;28;20407;-73
2021/04/07 07:14:48;;;;;;;4.13;1.20;;;1.80;99.90;;;;;;5014141;28;20815;-72
2021/04/07 07:17:25;;;;;;;1.30;1.10;;;;;;;;;;5011359;28;20381;-72
2021/04/07 07:19:51;;;;;;;1.70;1.58;;;;;;;;;;5011295;28;20454;-72
2021/04/07 07:22:20;;;;;;;1.50;1.30;;;;;;;;;;5011071;28;20456;-72
2021/04/07 07:24:50;;;;;;;1.30;0.98;;;;;;;;;;5011082;28;20930;-72
2021/04/07 07:27:16;;;;;;;2.13;1.48;;;;;;;;;;5011260;28;20381;-72
2021/04/07 07:29:42;;;;;;;1.97;1.30;;;;;;;;;;5010519;28;20419;-72
2021/04/07 07:32:11;;;;;;;1.75;1.30;;;2.60;99.90;;;;;;5011348;28;20403;-72
2021/04/07 07:34:37;;;;;;;3.00;1.40;;;;;;;;;;5010759;28;20384;-72
2021/04/07 07:37:04;;;;;;;2.40;1.30;;;;;;;;;;5011054;28;20373;-71
2021/04/07 07:39:37;;;;;;;1.30;0.98;;;;;;;;;;5013944;28;20388;-71
2021/04/07 07:42:07;;;;;;;4.60;1.90;;;2.70;99.90;;;;;;5015044;28;20384;-71
2021/04/07 07:44:39;;;;;;;3.00;1.33;;;2.40;99.90;;;;;;5014296;28;20384;-72
2021/04/07 07:49:42;;;;;;;1.60;1.20;;;;;;;;;;5014089;28;20432;-70
2021/04/07 07:52:09;;;;;;;2.30;1.20;;;;;;;;;;5014584;28;20379;-71
2021/04/07 07:54:35;;;;;;;1.80;1.20;;;;;;;;;;5012833;28;20896;-72
2021/04/07 07:57:11;;;;;;;1.85;1.40;;;;;;;;;;5014767;28;20385;-71
2021/04/07 07:59:37;;;;;;;3.10;1.70;;;;;;;;;;5014017;28;20427;-73
2021/04/07 08:02:15;;;;;;;1.97;1.40;;;2.40;99.90;;;;;;5014648;28;20381;-72
2021/04/07 08:04:45;;;;;;;2.10;1.40;;;;;;;;;;5013945;28;20389;-70
2021/04/07 08:07:12;;;;;;;1.63;1.52;;;;;;;;;;5014350;28;20426;-71
2021/04/07 08:09:38;;;;;;;1.60;1.30;;;;;;;;;;5013759;28;20717;-72
2021/04/07 08:12:05;;;;;;;1.90;1.40;;;;;;;;;;5029825;28;20414;-72
2021/04/07 08:14:31;;;;;;;2.90;1.77;;;;;;;;;;5001679;28;20473;-73
2021/04/07 08:16:57;;;;;;;1.70;1.30;;;;;;;;;;5014254;28;20381;-72
2021/04/07 08:19:24;;;;;;;2.40;1.52;;;;;;;;;;5013959;28;20377;-72
2021/04/07 08:21:53;;;;;;;1.90;1.50;;;2.40;99.90;;;;;;5013983;28;20392;-73
2021/04/07 08:24:19;;;;;;;2.97;1.63;;;;;;;;;;5013969;28;20397;-72
2021/04/07 08:26:46;;;;;;;2.27;1.50;;;;;;;;;;5013244;28;20760;-73
2021/04/07 08:29:13;;;;;;;2.47;1.40;;;;;;;;;;5013634;28;20892;-72
2021/04/07 08:31:40;;;;;;;2.90;1.63;;;;;;;;;;5013421;28;20396;-73
2021/04/07 08:34:07;;;;;;;2.58;1.70;;;;;;;;;;5013955;28;20427;-73
2021/04/07 08:36:33;;;;;;;2.70;1.95;;;;;;;;;;5013155;28;20385;-72
2021/04/07 08:39:00;;;;;;;1.55;1.40;;;;;;;;;;5013640;28;20384;-74
2021/04/07 08:41:26;;;;;;;1.73;1.30;;;;;;;;;;5013348;28;20423;-75
2021/04/07 08:43:53;;;;;;;1.83;1.48;;;;;;;;;;5013884;28;20376;-73
2021/04/07 08:46:23;;;;;;;2.42;1.50;;;;;;;;;;5013764;28;20484;-72
2021/04/07 08:48:49;;;;;;;1.90;1.70;;;;;;;;;;5013015;28;20387;-73
2021/04/07 08:51:18;;;;;;;3.03;1.20;;;;;;;;;;5013561;28;20500;-72
2021/04/07 08:53:49;;;;;;;1.40;1.02;;;3.00;99.90;;;;;;5012963;28;20374;-73
2021/04/07 08:56:17;;;;;;;1.50;1.10;;;3.40;99.90;;;;;;5013499;28;20385;-71
2021/04/07 08:58:52;;;;;;;2.25;1.38;;;;;;;;;;5012918;28;20389;-73
2021/04/07 09:01:29;;;;;;;1.20;0.93;;;3.10;99.90;;;;;;5013285;28;20404;-72
2021/04/07 09:04:15;;;;;;;1.55;1.02;;;;;;;;;;5013446;28;20389;-72
2021/04/07 09:06:58;;;;;;;1.90;1.00;;;;;;;;;;5012341;28;20915;-74
2021/04/07 09:09:24;;;;;;;2.20;1.00;;;;;;;;;;5012833;28;20425;-71
2021/04/07 09:11:51;;;;;;;1.52;0.90;;;;;;;;;;5025651;28;20411;-72
2021/04/07 09:14:17;;;;;;;2.42;1.20;;;;;;;;;;5020500;28;20385;-75
2021/04/07 09:16:43;;;;;;;1.20;1.10;;;;;;;;;;5012602;28;20461;-72
2021/04/07 09:19:12;;;;;;;1.67;1.00;;;;;;;;;;5012751;28;20495;-72
2021/04/07 09:21:38;;;;;;;2.13;1.20;;;;;;;;;;5012402;28;20385;-72
2021/04/07 09:24:14;;;;;;;1.73;1.30;;;;;;;;;;5012788;28;20461;-72
2021/04/07 09:26:45;;;;;;;1.20;1.10;;;3.50;99.90;;;;;;5012198;28;20907;-71
2021/04/07 09:29:13;;;;;;;1.00;0.90;;;;;;;;;;5013034;28;20439;-70
2021/04/07 09:31:39;;;;;;;1.30;1.15;;;;;;;;;;5012110;28;20391;-71
2021/04/07 09:34:05;;;;;;;1.15;0.93;;;3.10;99.90;;;;;;5012830;28;20380;-71
2021/04/07 09:36:38;;;;;;;1.75;0.93;;;;;;;;;;5012343;28;20380;-70
2021/04/07 09:39:09;;;;;;;1.60;1.33;;;;;;;;;;5012685;28;20385;-70
2021/04/07 09:41:35;;;;;;;1.40;0.82;;;;;;;;;;5012028;28;20381;-70
2021/04/07 09:44:04;;;;;;;1.30;0.80;;;3.90;99.90;;;;;;5012622;28;20384;-71
2021/04/07 09:46:30;;;;;;;3.00;1.30;;;;;;;;;;4994248;28;20428;-73
2021/04/07 09:49:04;;;;;;;2.20;1.15;;;3.80;97.30;;;;;;5011176;28;20392;-71
2021/04/07 09:51:36;;;;;;;2.70;1.02;;;;;;;;;;5012296;28;20428;-70
2021/04/07 09:54:09;;;;;;;1.40;1.00;;;;;;;;;;5011175;28;20474;-71
2021/04/07 09:56:45;;;;;;;0.90;0.68;;;;;;;;;;5011816;28;20822;-70
2021/04/07 09:59:11;;;;;;;1.37;1.20;;;;;;;;;;5012341;28;20861;-70
2021/04/07 10:01:40;;;;;;;2.03;1.38;;;;;;;;;;5010834;28;20370;-71
2021/04/07 10:04:07;;;;;;;3.05;0.90;;;;;;;;;;5012329;28;20381;-70
2021/04/07 10:06:33;;;;;;;2.33;1.23;;;;;;;;;;5011651;28;20409;-72
2021/04/07 10:09:09;;;;;;;2.13;1.00;;;;;;;;;;5012128;28;20392;-71
2021/04/07 10:11:37;;;;;;;2.07;1.20;;;;;;;;;;5018621;28;20438;-72
2021/04/07 10:14:03;;;;;;;1.67;0.90;;;;;;;;;;5021298;28;20796;-70
2021/04/07 10:16:33;;;;;;;1.13;0.80;;;;;;;;;;5010473;28;20463;-70
2021/04/07 10:18:59;;;;;;;1.15;0.85;;;;;;;;;;5011732;28;20396;-70
2021/04/07 10:21:29;;;;;;;1.30;1.20;;;;;;;;;;5011946;28;20772;-71
2021/04/07 10:23:57;;;;;;;1.10;0.90;;;;;;;;;;5011254;28;20377;-71
2021/04/07 10:26:23;;;;;;;1.25;0.90;;;;;;;;;;5011880;28;20384;-71
2021/04/07 10:28:56;;;;;;;1.33;1.00;;;5.10;96.80;;;;;;5011310;28;20381;-71
2021/04/07 10:31:22;;;;;;;2.78;1.38;;;;;;;;;;5011692;28;20449;-71
2021/04/07 10:33:48;;;;;;;1.70;1.10;;;4.00;97.20;;;;;;5011221;28;20396;-72
2021/04/07 10:36:14;;;;;;;1.90;1.30;;;;;;;;;;5011608;28;20450;-71
2021/04/07 10:38:41;;;;;;;3.00;1.15;;;;;;;;;;5011189;28;20425;-71
2021/04/07 10:41:07;;;;;;;2.10;1.00;;;;;;;;;;5010382;28;20395;-72
2021/04/07 10:43:39;;;;;;;1.65;0.95;;;4.50;94.90;;;;;;5010260;28;20731;-74
2021/04/07 10:46:06;;;;;;;1.17;1.08;;;5.20;97.90;;;;;;5011773;28;20719;-71
2021/04/07 10:48:33;;;;;;;1.90;0.85;;;;;;;;;;5011570;28;20391;-70
2021/04/07 10:50:59;;;;;;;1.80;1.20;;;;;;;;;;5011112;28;20507;-71
2021/04/07 10:53:43;;;;;;;0.80;0.80;;;;;;;;;;5011590;28;20381;-70
2021/04/07 10:56:20;;;;;;;1.27;1.17;;;4.90;93.40;;;;;;5011896;28;20423;-71
2021/04/07 10:59:01;;;;;;;1.25;1.10;;;;;;;;;;5010987;28;20437;-71
2021/04/07 11:01:27;;;;;;;0.90;0.73;;;;;;;;;;5011399;28;20418;-72
2021/04/07 11:03:54;;;;;;;1.00;0.90;;;;;;;;;;5010860;28;20377;-71
2021/04/07 11:06:20;;;;;;;1.00;0.80;;;;;;;;;;5011303;28;20770;-70
2021/04/07 11:08:47;;;;;;;0.90;0.70;;;;;;;;;;5010592;28;20715;-71
2021/04/07 11:11:20;;;;;;;1.10;0.85;;;;;;;;;;5015893;28;20431;-70
2021/04/07 11:13:46;;;;;;;1.45;0.90;;;;;;;;;;5028791;28;20845;-72
2021/04/07 11:16:12;;;;;;;1.50;0.80;;;;;;;;;;5017749;28;20364;-71
2021/04/07 11:18:39;;;;;;;1.40;1.30;;;;;;;;;;5017233;28;20547;-71
2021/04/07 11:21:07;;;;;;;1.85;1.00;;;5.40;91.20;;;;;;5017518;28;20868;-71
2021/04/07 11:23:35;;;;;;;2.00;1.20;;;;;;;;;;5017772;28;20477;-70
2021/04/07 11:26:01;;;;;;;3.10;1.07;;;;;;;;;;5017260;28;20940;-70
2021/04/07 11:28:27;;;;;;;1.70;1.15;;;;;;;;;;5017676;28;20734;-71
2021/04/07 11:31:00;;;;;;;1.43;0.90;;;;;;;;;;5017028;28;20474;-72
2021/04/07 11:33:37;;;;;;;2.30;1.00;;;;;;;;;;5017771;28;20415;-70
2021/04/07 11:39:13;;;;;;;2.60;0.60;;;6.20;81.40;;;;;;5017110;28;20388;-73
2021/04/07 11:42:02;;;;;;;3.40;1.13;;;;;;;;;;5016966;28;20396;-69
2021/04/07 11:44:30;;;;;;;0.93;0.70;;;6.30;85.90;;;;;;5017429;28;20384;-70
2021/04/07 11:46:59;;;;;;;1.70;0.80;;;;;;;;;;5016858;28;20733;-70
2021/04/07 11:49:26;;;;;;;1.30;0.70;;;;;;;;;;5017178;28;20951;-71
2021/04/07 11:51:52;;;;;;;2.10;0.80;;;;;;;;;;5016721;28;20388;-71
2021/04/07 11:54:19;;;;;;;1.10;0.70;;;6.10;89.50;;;;;;5017512;28;20409;-70
2021/04/07 11:56:46;;;;;;;0.93;0.80;;;;;;;;;;5016754;28;20435;-71
2021/04/07 11:59:13;;;;;;;1.80;1.02;;;;;;;;;;5017550;28;20377;-70
2021/04/07 12:01:39;;;;;;;0.82;0.82;;;;;;;;;;5016723;28;20381;-72
2021/04/07 12:04:05;;;;;;;0.90;0.70;;;;;;;;;;5017363;28;20688;-71
2021/04/07 12:06:32;;;;;;;2.03;0.80;;;;;;;;;;5017494;28;20369;-71
2021/04/07 12:08:57;;;;;;;2.80;0.80;;;5.90;80.80;;;;;;5016895;28;20385;-71
2021/04/07 12:11:24;;;;;;;1.92;1.00;;;6.20;90.60;;;;;;5022805;28;20485;-72
2021/04/07 12:13:51;;;;;;;0.80;0.52;;;;;;;;;;5027621;28;20400;-72
2021/04/07 12:16:16;;;;;;;1.60;0.90;;;5.80;91.00;;;;;;5017205;28;20377;-72
2021/04/07 12:18:42;;;;;;;1.10;0.70;;;;;;;;;;5016416;28;20439;-71
2021/04/07 12:21:08;;;;;;;1.75;0.60;;;;;;;;;;5017389;28;20377;-71
2021/04/07 12:23:34;;;;;;;4.22;1.30;;;5.50;90.60;;;;;;5015111;28;20377;-71
2021/04/07 12:26:00;;;;;;;1.42;0.60;;;5.50;90.40;;;;;;5014001;28;20396;-71
2021/04/07 12:28:26;;;;;;;2.67;1.00;;;;;;;;;;5014082;28;20408;-72
2021/04/07 12:30:53;;;;;;;1.70;0.70;;;;;;;;;;5013576;28;20804;-72
2021/04/07 12:33:25;;;;;;;2.20;0.60;;;5.30;87.00;;;;;;5014105;28;20391;-71
2021/04/07 12:35:51;;;;;;;1.80;0.75;;;;;;;;;;4995837;28;20796;-72
2021/04/07 12:38:18;;;;;;;0.80;0.60;;;;;;;;;;5012591;28;20385;-71
2021/04/07 12:40:48;;;;;;;2.80;0.80;;;;;;;;;;5013352;28;20385;-71
2021/04/07 12:43:14;;;;;;;1.05;0.80;;;;;;;;;;5013914;28;20404;-71
2021/04/07 12:45:40;;;;;;;2.00;0.80;;;5.10;90.20;;;;;;5012579;28;20396;-71
2021/04/07 12:48:06;;;;;;;1.30;0.93;;;;;;;;;;5013301;28;20381;-70
2021/04/07 12:50:32;;;;;;;1.80;1.00;;;4.80;90.30;;;;;;5013740;28;20409;-71
2021/04/07 12:52:59;;;;;;;1.27;0.70;;;5.10;89.30;;;;;;5012836;28;20468;-71
2021/04/07 12:55:49;;;;;;;0.60;0.40;;;;;;;;;;5013790;28;20404;-72
2021/04/07 12:58:16;;;;;;;4.40;1.00;;;;;;;;;;5013605;28;20808;-71
2021/04/07 13:00:42;;;;;;;1.60;0.60;;;;;;;;;;5013259;28;20385;-74
2021/04/07 13:03:08;;;;;;;1.00;0.70;;;5.20;87.40;;;;;;5013512;28;20511;-71
2021/04/07 13:05:34;;;;;;;0.95;0.75;;;;;;;;;;5013459;28;20812;-71
2021/04/07 13:08:00;;;;;;;1.02;0.60;;;;;;;;;;5012431;28;20873;-72
2021/04/07 13:10:26;;;;;;;0.70;0.65;;;;;;;;;;5013510;28;20444;-72
2021/04/07 13:12:52;;;;;;;0.80;0.50;;;;;;;;;;5029775;28;20407;-71
2021/04/07 13:15:19;;;;;;;0.80;0.50;;;;;;;;;;5013403;28;20531;-72
2021/04/07 13:17:45;;;;;;;1.00;0.60;;;;;;;;;;5012581;28;20426;-71
2021/04/07 13:20:17;;;;;;;1.90;0.60;;;;;;;;;;5012956;28;20788;-72
2021/04/07 13:22:43;;;;;;;1.60;0.90;;;;;;;;;;5013138;28;20414;-70
2021/04/07 13:25:10;;;;;;;1.83;0.80;;;;;;;;;;5013393;28;20702;-70
2021/04/07 13:27:36;;;;;;;2.35;0.90;;;;;;;;;;5012988;28;20402;-71
2021/04/07 13:30:04;;;;;;;1.20;0.80;;;4.70;90.10;;;;;;5012439;28;20412;-71
2021/04/07 13:32:31;;;;;;;1.15;0.70;;;4.70;87.90;;;;;;5012886;28;20389;-72
2021/04/07 13:35:08;;;;;;;1.52;0.60;;;;;;;;;;5011343;28;20484;-71
2021/04/07 13:40:05;;;;;;;2.50;0.60;;;;;;;;;;5012395;28;20471;-71
2021/04/07 13:45:15;;;;;;;1.08;0.75;;;4.70;93.90;;;;;;5012674;28;20429;-72
2021/04/07 13:47:44;;;;;;;4.10;0.90;;;;;;;;;;5012324;28;20928;-72
2021/04/07 13:50:11;;;;;;;0.70;0.60;;;;;;;;;;5012601;28;20404;-71
2021/04/07 13:52:37;;;;;;;1.10;0.90;;;;;;;;;;5012429;28;20727;-71
2021/04/07 13:55:04;;;;;;;1.10;0.70;;;;;;;;;;5012264;28;20393;-70
2021/04/07 13:57:30;;;;;;;1.83;0.85;;;;;;;;;;5012331;28;20387;-71
2021/04/07 13:59:57;;;;;;;0.80;0.67;;;;;;;;;;5011869;28;20380;-71
2021/04/07 14:02:24;;;;;;;3.33;1.00;;;;;;;;;;5012678;28;20380;-71
2021/04/07 14:04:50;;;;;;;1.52;0.90;;;;;;;;;;5011781;28;20464;-71
2021/04/07 14:07:16;;;;;;;0.90;0.80;;;;;;;;;;5012105;28;20805;-72
2021/04/07 14:09:49;;;;;;;2.67;0.82;;;;;;;;;;5012286;28;20401;-71
2021/04/07 14:12:18;;;;;;;1.60;0.80;;;;;;;;;;5022704;28;20423;-72
2021/04/07 14:14:44;;;;;;;0.98;0.80;;;;;;;;;;5015614;28;20391;-72
2021/04/07 14:17:10;;;;;;;1.43;0.63;;;;;;;;;;5011658;28;20408;-70
2021/04/07 14:19:36;;;;;;;1.70;0.60;;;;;;;;;;5012267;28;20385;-70
2021/04/07 14:22:04;;;;;;;2.20;0.60;;;;;;;;;;5011441;28;20456;-71
2021/04/07 14:24:29;;;;;;;2.10;0.80;;;4.00;95.90;;;;;;5011731;28;20956;-71
2021/04/07 14:27:01;;;;;;;2.70;0.80;;;;;;;;;;5011480;28;20413;-71
2021/04/07 14:29:27;;;;;;;1.95;0.80;;;;;;;;;;5011890;28;20380;-71
2021/04/07 14:31:53;;;;;;;1.70;0.70;;;;;;;;;;5011593;28;20400;-70
2021/04/07 14:34:20;;;;;;;2.50;0.80;;;;;;;;;;5011782;28;20385;-71
2021/04/07 14:36:46;;;;;;;2.00;0.70;;;;;;;;;;5011799;28;20373;-70